Z E U S — IFWZ — position and weather

sailwx.info

Track history (hours):
 
Tides and Currents Weather Stations Pressure Air Temp Water Temp Dewpoint Dewpoint Depression Visibility Wind Speed Wind Dir Waves Ship Positions

Z E U S

Last reported at 2015-Jan-31 08:27 UTC. Time now 2015-Feb-01 16:45 UTC.
Position N 38°01' E 012°31'.

Length 53 m; draft 2.5 m.

Type: Ship. MMSI: 247072100.

Date/timePositionNaut miles runAvg speedWind from/ knotsBaromVisibWave heightAir tempDewpointWater temp
2015-Jan-31 08:27N 38°01' E 012°31'0 0.0
2015-Jan-31 07:33N 38°01' E 012°31'0 0.0
2015-Jan-31 06:33N 38°01' E 012°31'0 0.0
2015-Jan-31 05:33N 38°01' E 012°31'0 0.0
2015-Jan-30 13:27N 38°01' E 012°31'0 0.0
2015-Jan-30 12:33N 38°01' E 012°31'0 0.0
2015-Jan-30 11:33N 38°01' E 012°31'0 0.0
2015-Jan-30 10:33N 38°01' E 012°31'0 0.0
2015-Jan-30 09:33N 38°01' E 012°31'0 0.0
2015-Jan-30 08:33N 38°01' E 012°31'0 0.0
2015-Jan-30 07:33N 38°01' E 012°31'0 0.0
2015-Jan-30 06:33N 38°01' E 012°31'0 0.0
2015-Jan-30 05:33N 38°01' E 012°31'0 0.0
2015-Jan-29 14:19N 38°01' E 012°31'0 0.0
2015-Jan-29 13:33N 38°01' E 012°31'0 0.0
2015-Jan-29 12:33N 38°01' E 012°31'0 0.0
2015-Jan-29 11:33N 38°01' E 012°31'0 0.0
2015-Jan-29 10:34N 38°01' E 012°31'0 0.0
2015-Jan-29 09:33N 38°01' E 012°31'0 0.0
2015-Jan-29 08:33N 38°01' E 012°31'0 0.0
2015-Jan-29 07:34N 38°01' E 012°31'0 0.0
2015-Jan-29 06:34N 38°01' E 012°31'0 0.0
2015-Jan-29 05:34N 38°01' E 012°31'0 0.0
2015-Jan-28 13:33N 38°01' E 012°31'0 0.0
2015-Jan-28 12:33N 38°01' E 012°31'0 0.0
2015-Jan-28 11:33N 38°01' E 012°31'0 0.0
2015-Jan-28 10:33N 38°01' E 012°31'6 6.5
2015-Jan-28 09:33N 37°58' E 012°24'4 3.6
2015-Jan-28 08:33N 37°56' E 012°20'0 0.0
2015-Jan-28 07:33N 37°56' E 012°20'5 4.9
2015-Jan-28 06:33N 37°58' E 012°25'5 5.2
2015-Jan-28 05:33N 38°01' E 012°31'0 0.0
2015-Jan-27 14:09N 38°01' E 012°31'0 0.0
2015-Jan-27 13:34N 38°01' E 012°31'0 0.0
2015-Jan-27 12:33N 38°01' E 012°31'9 9.2
2015-Jan-27 11:33N 37°57' E 012°20'1 1.1
2015-Jan-27 10:33N 37°56' E 012°20'0 0.0
2015-Jan-27 09:33N 37°56' E 012°20'0 0.0
2015-Jan-27 08:33N 37°56' E 012°20'0 0.0
2015-Jan-27 07:33N 37°56' E 012°20'7 6.7
2015-Jan-27 06:33N 37°60' E 012°27'4 3.5
2015-Jan-27 05:33N 38°01' E 012°31'0 0.0
2015-Jan-26 14:33N 38°01' E 012°31'0 0.0
2015-Jan-26 13:33N 38°01' E 012°31'0 0.0
2015-Jan-26 12:33N 38°01' E 012°31'4 4.2
2015-Jan-26 11:33N 37°59' E 012°26'6 5.9
2015-Jan-26 10:33N 37°56' E 012°20'0 0.0
2015-Jan-26 09:33N 37°56' E 012°20'0 0.0
2015-Jan-26 08:33N 37°56' E 012°20'2 1.7
2015-Jan-26 07:33N 37°58' E 012°20'4 3.7
2015-Jan-26 06:34N 37°58' E 012°25'6 5.5
2015-Jan-26 05:33N 38°01' E 012°31'0 0.0
2015-Jan-24 12:23N 38°01' E 012°31'0 0.0
2015-Jan-24 11:33N 38°01' E 012°31'0 0.0
2015-Jan-24 10:33N 38°01' E 012°31'0 0.0
2015-Jan-24 09:33N 38°01' E 012°31'0 0.0
2015-Jan-24 08:33N 38°01' E 012°31'0 0.0
2015-Jan-24 07:33N 38°01' E 012°31'0 0.0
2015-Jan-24 06:33N 38°01' E 012°31'0 0.0
2015-Jan-24 05:33N 38°01' E 012°31'0 0.0
2015-Jan-23 14:33N 38°01' E 012°31'0 0.0
2015-Jan-23 13:34N 38°01' E 012°31'0 0.0
2015-Jan-23 12:34N 38°01' E 012°31'0 0.0
2015-Jan-23 11:34N 38°01' E 012°31'0 0.0
2015-Jan-23 10:33N 38°01' E 012°31'5 4.8
2015-Jan-23 09:33N 37°58' E 012°26'5 5.3
2015-Jan-23 08:33N 37°56' E 012°20'0 0.0
2015-Jan-23 07:33N 37°56' E 012°20'4 4.3
2015-Jan-23 06:33N 37°58' E 012°24'6 5.8
2015-Jan-23 05:33N 38°01' E 012°31'0 0.0
2015-Jan-22 12:33N 38°01' E 012°31'5 5.4
2015-Jan-22 11:33N 37°58' E 012°25'5 4.7
2015-Jan-22 10:33N 37°56' E 012°20'0 0.0
2015-Jan-22 09:33N 37°56' E 012°20'0 0.0
2015-Jan-22 08:28N 37°56' E 012°20'0 0.0
2015-Jan-22 07:33N 37°56' E 012°20'6 6.0
2015-Jan-22 06:33N 37°59' E 012°26'4 4.0
2015-Jan-22 05:33N 38°01' E 012°31'0 0.0
2015-Jan-21 14:33N 38°01' E 012°31'0 0.0
2015-Jan-21 13:33N 38°01' E 012°31'0 0.0
2015-Jan-21 12:33N 38°01' E 012°31'4 3.8
2015-Jan-21 11:33N 37°59' E 012°26'6 6.1
2015-Jan-21 10:33N 37°56' E 012°20'0 0.0
2015-Jan-21 09:33N 37°56' E 012°20'3 3.3
2015-Jan-21 08:34N 37°59' E 012°21'  
Track history (hours):
 
Tides and Currents Weather Stations Pressure Air Temp Water Temp Dewpoint Dewpoint Depression Visibility Wind Speed Wind Dir Waves Ship Positions

Z E U S

Last reported at 2015-Jan-31 08:27 UTC. Time now 2015-Feb-01 16:45 UTC.
Position N 38°01' E 012°31'.

Length 53 m; draft 2.5 m.

Type: Ship. MMSI: 247072100.

Date/timePositionNaut miles runAvg speedWind from/ knotsBaromVisibWave heightAir tempDewpointWater temp
2015-Jan-31 08:27N 38°01' E 012°31'0 0.0
2015-Jan-31 07:33N 38°01' E 012°31'0 0.0
2015-Jan-31 06:33N 38°01' E 012°31'0 0.0
2015-Jan-31 05:33N 38°01' E 012°31'0 0.0
2015-Jan-30 13:27N 38°01' E 012°31'0 0.0
2015-Jan-30 12:33N 38°01' E 012°31'0 0.0
2015-Jan-30 11:33N 38°01' E 012°31'0 0.0
2015-Jan-30 10:33N 38°01' E 012°31'0 0.0
2015-Jan-30 09:33N 38°01' E 012°31'0 0.0
2015-Jan-30 08:33N 38°01' E 012°31'0 0.0
2015-Jan-30 07:33N 38°01' E 012°31'0 0.0
2015-Jan-30 06:33N 38°01' E 012°31'0 0.0
2015-Jan-30 05:33N 38°01' E 012°31'0 0.0
2015-Jan-29 14:19N 38°01' E 012°31'0 0.0
2015-Jan-29 13:33N 38°01' E 012°31'0 0.0
2015-Jan-29 12:33N 38°01' E 012°31'0 0.0
2015-Jan-29 11:33N 38°01' E 012°31'0 0.0
2015-Jan-29 10:34N 38°01' E 012°31'0 0.0
2015-Jan-29 09:33N 38°01' E 012°31'0 0.0
2015-Jan-29 08:33N 38°01' E 012°31'0 0.0
2015-Jan-29 07:34N 38°01' E 012°31'0 0.0
2015-Jan-29 06:34N 38°01' E 012°31'0 0.0
2015-Jan-29 05:34N 38°01' E 012°31'0 0.0
2015-Jan-28 13:33N 38°01' E 012°31'0 0.0
2015-Jan-28 12:33N 38°01' E 012°31'0 0.0
2015-Jan-28 11:33N 38°01' E 012°31'0 0.0
2015-Jan-28 10:33N 38°01' E 012°31'6 6.5
2015-Jan-28 09:33N 37°58' E 012°24'4 3.6
2015-Jan-28 08:33N 37°56' E 012°20'0 0.0
2015-Jan-28 07:33N 37°56' E 012°20'5 4.9
2015-Jan-28 06:33N 37°58' E 012°25'5 5.2
2015-Jan-28 05:33N 38°01' E 012°31'0 0.0
2015-Jan-27 14:09N 38°01' E 012°31'0 0.0
2015-Jan-27 13:34N 38°01' E 012°31'0 0.0
2015-Jan-27 12:33N 38°01' E 012°31'9 9.2
2015-Jan-27 11:33N 37°57' E 012°20'1 1.1
2015-Jan-27 10:33N 37°56' E 012°20'0 0.0
2015-Jan-27 09:33N 37°56' E 012°20'0 0.0
2015-Jan-27 08:33N 37°56' E 012°20'0 0.0
2015-Jan-27 07:33N 37°56' E 012°20'7 6.7
2015-Jan-27 06:33N 37°60' E 012°27'4 3.5
2015-Jan-27 05:33N 38°01' E 012°31'0 0.0
2015-Jan-26 14:33N 38°01' E 012°31'0 0.0
2015-Jan-26 13:33N 38°01' E 012°31'0 0.0
2015-Jan-26 12:33N 38°01' E 012°31'4 4.2
2015-Jan-26 11:33N 37°59' E 012°26'6 5.9
2015-Jan-26 10:33N 37°56' E 012°20'0 0.0
2015-Jan-26 09:33N 37°56' E 012°20'0 0.0
2015-Jan-26 08:33N 37°56' E 012°20'2 1.7
2015-Jan-26 07:33N 37°58' E 012°20'4 3.7
2015-Jan-26 06:34N 37°58' E 012°25'6 5.5
2015-Jan-26 05:33N 38°01' E 012°31'0 0.0
2015-Jan-24 12:23N 38°01' E 012°31'0 0.0
2015-Jan-24 11:33N 38°01' E 012°31'0 0.0
2015-Jan-24 10:33N 38°01' E 012°31'0 0.0
2015-Jan-24 09:33N 38°01' E 012°31'0 0.0
2015-Jan-24 08:33N 38°01' E 012°31'0 0.0
2015-Jan-24 07:33N 38°01' E 012°31'0 0.0
2015-Jan-24 06:33N 38°01' E 012°31'0 0.0
2015-Jan-24 05:33N 38°01' E 012°31'0 0.0
2015-Jan-23 14:33N 38°01' E 012°31'0 0.0
2015-Jan-23 13:34N 38°01' E 012°31'0 0.0
2015-Jan-23 12:34N 38°01' E 012°31'0 0.0
2015-Jan-23 11:34N 38°01' E 012°31'0 0.0
2015-Jan-23 10:33N 38°01' E 012°31'5 4.8
2015-Jan-23 09:33N 37°58' E 012°26'5 5.3
2015-Jan-23 08:33N 37°56' E 012°20'0 0.0
2015-Jan-23 07:33N 37°56' E 012°20'4 4.3
2015-Jan-23 06:33N 37°58' E 012°24'6 5.8
2015-Jan-23 05:33N 38°01' E 012°31'0 0.0
2015-Jan-22 12:33N 38°01' E 012°31'5 5.4
2015-Jan-22 11:33N 37°58' E 012°25'5 4.7
2015-Jan-22 10:33N 37°56' E 012°20'0 0.0
2015-Jan-22 09:33N 37°56' E 012°20'0 0.0
2015-Jan-22 08:28N 37°56' E 012°20'0 0.0
2015-Jan-22 07:33N 37°56' E 012°20'6 6.0
2015-Jan-22 06:33N 37°59' E 012°26'4 4.0
2015-Jan-22 05:33N 38°01' E 012°31'0 0.0
2015-Jan-21 14:33N 38°01' E 012°31'0 0.0
2015-Jan-21 13:33N 38°01' E 012°31'0 0.0
2015-Jan-21 12:33N 38°01' E 012°31'4 3.8
2015-Jan-21 11:33N 37°59' E 012°26'6 6.1
2015-Jan-21 10:33N 37°56' E 012°20'0 0.0
2015-Jan-21 09:33N 37°56' E 012°20'3 3.3
2015-Jan-21 08:34N 37°59' E 012°21'  

Dump ship's entire track history